Time;durP1;ratioP1;P1;durP2;ratioP2;P2;SDS_P1;SDS_P2;PMS_P1;PMS_P2;Temp;Humidity;BMP_temperature;BMP_pressure;BME280_temperature;BME280_humidity;BME280_pressure;Samples;Min_cycle;Max_cycle;Signal;HPM_P1;HPM_P2
2023/12/20 00:01:25;;;;;;;9.60;1.58;;;5.90;99.90;;;;;;5132057;27;20128;-67
2023/12/20 00:03:51;;;;;;;14.00;1.75;;;5.80;99.90;;;;;;5129904;27;20066;-67
2023/12/20 00:06:17;;;;;;;21.27;2.50;;;5.80;99.90;;;;;;5100401;28;20096;-66
2023/12/20 00:08:44;;;;;;;15.43;2.15;;;5.80;99.90;;;;;;5131769;27;20815;-66
2023/12/20 00:11:09;;;;;;;18.88;2.53;;;5.90;99.90;;;;;;5098203;27;20055;-66
2023/12/20 00:13:35;;;;;;;17.83;2.05;;;5.80;99.90;;;;;;5097544;28;20057;-67
2023/12/20 00:16:01;;;;;;;17.80;2.22;;;5.70;99.90;;;;;;5067740;28;20094;-68
2023/12/20 00:18:26;;;;;;;17.90;2.30;;;5.80;99.90;;;;;;5098924;27;20031;-68
2023/12/20 00:20:52;;;;;;;11.75;2.13;;;5.80;99.90;;;;;;5096740;28;20126;-68
2023/12/20 00:23:18;;;;;;;14.50;1.98;;;5.80;99.90;;;;;;5095205;28;20047;-68
2023/12/20 00:25:43;;;;;;;16.40;2.33;;;5.70;99.90;;;;;;5112207;27;20130;-68
2023/12/20 00:28:09;;;;;;;15.65;2.15;;;5.70;99.90;;;;;;5093334;28;20126;-68
2023/12/20 00:30:36;;;;;;;21.75;2.00;;;5.70;99.90;;;;;;5087411;28;20043;-68
2023/12/20 00:33:02;;;;;;;16.05;2.22;;;5.70;99.90;;;;;;5079828;28;20055;-68
2023/12/20 00:35:28;;;;;;;14.13;1.90;;;5.70;99.90;;;;;;5095183;28;20083;-68
2023/12/20 00:37:53;;;;;;;21.50;2.10;;;5.70;99.90;;;;;;5098396;28;20743;-67
2023/12/20 00:40:20;;;;;;;16.83;2.47;;;5.80;99.90;;;;;;5097883;28;20048;-68
2023/12/20 00:42:46;;;;;;;18.40;2.42;;;5.70;99.90;;;;;;5099080;28;20697;-68
2023/12/20 00:45:13;;;;;;;12.20;1.38;;;5.70;99.90;;;;;;5081686;28;20052;-68
2023/12/20 00:47:38;;;;;;;20.92;2.33;;;5.70;99.90;;;;;;5095982;28;20056;-68
2023/12/20 00:50:04;;;;;;;16.10;2.08;;;5.70;99.90;;;;;;5097562;28;20040;-68
2023/12/20 00:52:30;;;;;;;21.90;2.42;;;5.70;99.90;;;;;;5083091;28;20043;-68
2023/12/20 00:54:56;;;;;;;15.25;2.00;;;5.70;99.90;;;;;;5097017;28;20043;-68
2023/12/20 00:57:22;;;;;;;16.13;1.65;;;5.70;99.90;;;;;;5095567;28;20057;-68
2023/12/20 00:59:47;;;;;;;15.13;1.85;;;5.60;99.90;;;;;;5097880;28;20067;-68
2023/12/20 01:02:13;;;;;;;21.48;3.50;;;5.70;99.90;;;;;;5094953;28;20411;-68
2023/12/20 01:04:39;;;;;;;16.80;2.05;;;5.60;99.90;;;;;;5097107;28;20050;-68
2023/12/20 01:07:04;;;;;;;12.38;2.00;;;5.60;99.90;;;;;;5096105;28;20463;-68
2023/12/20 01:09:30;;;;;;;20.30;2.70;;;5.60;99.90;;;;;;5095535;28;20067;-68
2023/12/20 01:11:56;;;;;;;21.77;2.22;;;5.60;99.90;;;;;;5100174;28;20046;-68
2023/12/20 01:14:21;;;;;;;19.42;2.53;;;5.60;99.90;;;;;;5130286;27;20116;-68
2023/12/20 01:16:47;;;;;;;21.45;2.60;;;5.90;99.90;;;;;;5081215;28;20062;-73
2023/12/20 01:19:14;;;;;;;20.35;2.17;;;5.60;99.90;;;;;;5130372;27;20074;-65
2023/12/20 01:21:40;;;;;;;26.17;3.30;;;6.20;99.90;;;;;;5113096;28;20043;-65
2023/12/20 01:24:05;;;;;;;18.15;3.80;;;5.60;99.90;;;;;;5133534;27;20404;-65
2023/12/20 01:26:31;;;;;;;16.02;2.22;;;5.60;99.90;;;;;;5096729;28;20040;-65
2023/12/20 01:28:57;;;;;;;18.35;2.42;;;5.60;99.90;;;;;;5096896;28;20051;-65
2023/12/20 01:31:23;;;;;;;19.58;3.08;;;5.60;99.90;;;;;;5099184;28;20035;-65
2023/12/20 01:33:48;;;;;;;21.27;3.35;;;5.60;99.90;;;;;;5092864;28;20066;-65
2023/12/20 01:36:14;;;;;;;13.48;2.47;;;5.70;99.90;;;;;;5097923;28;20397;-65
2023/12/20 01:38:40;;;;;;;23.95;3.28;;;6.10;99.90;;;;;;5099598;28;20982;-65
2023/12/20 01:41:06;;;;;;;15.57;2.35;;;5.70;99.90;;;;;;5100109;28;20040;-65
2023/12/20 01:43:31;;;;;;;17.25;2.67;;;5.70;99.90;;;;;;5076610;28;20400;-65
2023/12/20 01:45:58;;;;;;;14.50;2.03;;;5.70;99.90;;;;;;5097306;28;20503;-65
2023/12/20 01:48:27;;;;;;;15.43;2.10;;;5.70;99.90;;;;;;5101338;28;20044;-71
2023/12/20 01:50:54;;;;;;;13.43;1.88;;;5.70;99.90;;;;;;5100643;28;20637;-66
2023/12/20 01:53:24;;;;;;;12.77;2.13;;;5.70;99.90;;;;;;5082598;28;20039;-65
2023/12/20 01:55:52;;;;;;;14.98;2.00;;;5.60;99.90;;;;;;5098199;28;20055;-66
2023/12/20 01:58:18;;;;;;;16.80;2.00;;;5.60;99.90;;;;;;5082662;28;20047;-67
2023/12/20 02:00:44;;;;;;;18.67;2.42;;;5.60;99.90;;;;;;5078939;28;20048;-67
2023/12/20 02:03:11;;;;;;;25.23;2.85;;;5.60;99.90;;;;;;5096825;28;20043;-67
2023/12/20 02:05:38;;;;;;;19.25;2.50;;;5.60;99.90;;;;;;5078998;28;20048;-68
2023/12/20 02:08:05;;;;;;;21.75;3.45;;;5.60;99.90;;;;;;5099934;27;20134;-67
2023/12/20 02:10:31;;;;;;;21.00;3.03;;;5.50;99.90;;;;;;5081002;28;20052;-67
2023/12/20 02:12:57;;;;;;;23.25;3.35;;;5.60;99.90;;;;;;5128269;27;20052;-65
2023/12/20 02:15:23;;;;;;;25.80;3.42;;;5.60;99.90;;;;;;5099161;28;21167;-65
2023/12/20 02:17:49;;;;;;;30.92;4.88;;;5.60;99.90;;;;;;5133570;27;20044;-66
2023/12/20 02:20:15;;;;;;;24.45;4.30;;;5.60;99.90;;;;;;5084526;28;20044;-65
2023/12/20 02:22:41;;;;;;;35.95;3.85;;;5.60;99.90;;;;;;5098512;28;20464;-66
2023/12/20 02:25:07;;;;;;;24.90;3.55;;;5.70;99.90;;;;;;5083505;28;20056;-65
2023/12/20 02:27:34;;;;;;;34.28;3.97;;;5.70;99.90;;;;;;5099140;28;20077;-65
2023/12/20 02:29:59;;;;;;;24.60;3.45;;;5.70;99.90;;;;;;5101923;28;20159;-65
2023/12/20 02:32:28;;;;;;;29.88;3.97;;;5.70;99.90;;;;;;5100318;28;20177;-65
2023/12/20 02:34:55;;;;;;;31.40;3.60;;;5.70;99.90;;;;;;5080566;28;20046;-65
2023/12/20 02:37:21;;;;;;;23.50;3.78;;;5.80;99.90;;;;;;5098309;28;20038;-65
2023/12/20 02:39:47;;;;;;;31.33;4.30;;;5.80;99.90;;;;;;5098818;28;20044;-65
2023/12/20 02:42:12;;;;;;;21.50;3.38;;;5.80;99.90;;;;;;5100543;28;20057;-65
2023/12/20 02:44:38;;;;;;;31.55;4.13;;;5.80;99.90;;;;;;5100782;28;20470;-66
2023/12/20 02:47:04;;;;;;;33.22;3.22;;;5.80;99.90;;;;;;5131949;27;20047;-66
2023/12/20 02:49:30;;;;;;;28.42;3.70;;;5.80;99.90;;;;;;5082019;28;20039;-65
2023/12/20 02:51:55;;;;;;;33.80;2.92;;;5.80;99.90;;;;;;5094832;28;20074;-66
2023/12/20 02:54:21;;;;;;;21.45;3.00;;;5.80;99.90;;;;;;5097007;28;20055;-65
2023/12/20 02:56:48;;;;;;;25.98;3.65;;;5.90;99.90;;;;;;5102039;27;20092;-65
2023/12/20 02:59:14;;;;;;;29.83;4.00;;;5.80;99.90;;;;;;5082370;28;20047;-68
2023/12/20 03:01:45;;;;;;;30.58;3.72;;;5.80;99.90;;;;;;5098273;28;20597;-68
2023/12/20 03:04:11;;;;;;;;;;;5.90;99.90;;;;;;5096742;28;20466;-68
2023/12/20 03:06:37;;;;;;;28.48;3.78;;;5.80;99.90;;;;;;5097959;28;19971;-68
2023/12/20 03:09:03;;;;;;;33.42;3.88;;;5.90;99.90;;;;;;5101199;28;20052;-68
2023/12/20 03:11:29;;;;;;;28.58;3.97;;;5.80;99.90;;;;;;5098059;28;20104;-68
2023/12/20 03:13:55;;;;;;;32.03;4.15;;;5.90;99.90;;;;;;5098766;27;20198;-68
2023/12/20 03:16:21;;;;;;;22.85;3.45;;;5.90;99.90;;;;;;5079531;28;20043;-68
2023/12/20 03:18:47;;;;;;;25.27;4.00;;;5.90;99.90;;;;;;5096634;28;20063;-68
2023/12/20 03:21:12;;;;;;;31.08;3.95;;;5.90;99.90;;;;;;5079574;28;20139;-68
2023/12/20 03:23:39;;;;;;;24.98;4.40;;;5.90;99.90;;;;;;5098821;28;20039;-68
2023/12/20 03:26:09;;;;;;;25.45;3.55;;;6.00;99.90;;;;;;5097519;28;20411;-68
2023/12/20 03:28:36;;;;;;;35.78;4.22;;;6.00;99.90;;;;;;5098386;28;20425;-68
2023/12/20 03:31:02;;;;;;;38.53;5.43;;;6.00;99.90;;;;;;5102404;28;20496;-68
2023/12/20 03:33:29;;;;;;;22.88;3.58;;;6.00;99.90;;;;;;5094814;28;20047;-68
2023/12/20 03:35:54;;;;;;;25.08;3.72;;;6.00;99.90;;;;;;5098817;28;20127;-66
2023/12/20 03:38:21;;;;;;;28.17;4.07;;;6.00;99.90;;;;;;5101047;28;20139;-66
2023/12/20 03:40:47;;;;;;;22.38;3.63;;;5.90;99.90;;;;;;5083034;28;20065;-66
2023/12/20 03:43:12;;;;;;;32.55;4.18;;;6.00;99.90;;;;;;5096630;28;20047;-66
2023/12/20 03:45:38;;;;;;;36.33;4.35;;;6.00;99.90;;;;;;5096779;28;20787;-65
2023/12/20 03:48:04;;;;;;;25.60;3.63;;;6.00;99.90;;;;;;5098109;28;20052;-65
2023/12/20 03:50:30;;;;;;;30.63;3.90;;;5.90;99.90;;;;;;5126579;27;20040;-65
2023/12/20 03:52:56;;;;;;;29.80;3.85;;;6.00;99.90;;;;;;5081502;28;20244;-65
2023/12/20 03:55:22;;;;;;;35.35;4.35;;;6.00;99.90;;;;;;5096133;28;20098;-65
2023/12/20 03:57:47;;;;;;;32.45;4.55;;;6.00;99.90;;;;;;5128951;27;20463;-65
2023/12/20 04:00:13;;;;;;;31.15;4.40;;;6.00;99.90;;;;;;5098018;28;20051;-65
2023/12/20 04:02:41;;;;;;;31.90;3.33;;;5.90;99.90;;;;;;5095277;28;20043;-65
2023/12/20 04:05:08;;;;;;;31.13;3.97;;;6.00;99.90;;;;;;5098512;28;20139;-66
2023/12/20 04:07:34;;;;;;;36.75;5.30;;;6.00;99.90;;;;;;5096396;27;20123;-66
2023/12/20 04:10:00;;;;;;;33.38;4.07;;;6.60;99.90;;;;;;5100742;28;20461;-66
2023/12/20 04:12:27;;;;;;;31.25;3.60;;;6.10;99.90;;;;;;5096310;28;20040;-65
2023/12/20 04:14:53;;;;;;;31.98;3.80;;;6.00;99.90;;;;;;5075607;28;20043;-66
2023/12/20 04:17:22;;;;;;;32.17;4.70;;;6.00;99.90;;;;;;5095708;28;20845;-66
2023/12/20 04:19:48;;;;;;;34.08;4.28;;;6.00;99.90;;;;;;5099557;28;20032;-65
2023/12/20 04:22:14;;;;;;;29.00;3.30;;;6.10;99.90;;;;;;5107304;27;20408;-65
2023/12/20 04:24:42;;;;;;;26.95;3.72;;;6.00;99.90;;;;;;5098774;28;20035;-64
2023/12/20 04:27:08;;;;;;;31.63;3.95;;;6.10;99.90;;;;;;5082843;28;20051;-65
2023/12/20 04:29:34;;;;;;;29.63;4.40;;;6.10;99.90;;;;;;5097090;28;20046;-65
2023/12/20 04:32:00;;;;;;;28.30;3.50;;;6.20;99.90;;;;;;5095031;28;20821;-65
2023/12/20 04:34:26;;;;;;;27.63;3.88;;;6.10;99.90;;;;;;5128372;27;20039;-65
2023/12/20 04:36:52;;;;;;;29.98;4.00;;;6.20;99.90;;;;;;5093516;28;20040;-65
2023/12/20 04:39:18;;;;;;;32.90;4.03;;;6.20;99.90;;;;;;5095575;28;20035;-67
2023/12/20 04:41:43;;;;;;;37.75;4.85;;;6.20;99.90;;;;;;5094608;28;20042;-67
2023/12/20 04:44:09;;;;;;;34.20;4.60;;;6.20;99.90;;;;;;5096549;28;20047;-68
2023/12/20 04:46:35;;;;;;;20.27;3.60;;;6.20;99.90;;;;;;5097608;28;20396;-69
2023/12/20 04:49:01;;;;;;;31.77;4.90;;;6.20;99.90;;;;;;5131093;27;20142;-68
2023/12/20 04:51:27;;;;;;;26.98;4.15;;;6.40;99.90;;;;;;5103868;28;20123;-69
2023/12/20 04:53:52;;;;;;;28.45;3.63;;;6.30;99.90;;;;;;5077815;28;20078;-69
2023/12/20 04:56:18;;;;;;;36.97;5.47;;;6.30;99.90;;;;;;5130740;27;20047;-67
2023/12/20 04:58:44;;;;;;;31.95;4.07;;;6.40;99.90;;;;;;5094833;28;20078;-68
2023/12/20 05:01:10;;;;;;;28.08;4.65;;;6.30;99.90;;;;;;5094238;28;20043;-69
2023/12/20 05:03:36;;;;;;;28.08;4.00;;;6.60;99.90;;;;;;5096062;28;20043;-68
2023/12/20 05:06:02;;;;;;;36.38;4.45;;;6.60;99.90;;;;;;5094881;28;20123;-68
2023/12/20 05:08:27;;;;;;;35.17;4.75;;;6.40;99.90;;;;;;5078631;28;20062;-68
2023/12/20 05:10:54;;;;;;;25.35;4.13;;;6.40;99.90;;;;;;5097688;28;20047;-68
2023/12/20 05:13:21;;;;;;;31.13;4.55;;;6.40;99.90;;;;;;5092347;28;20064;-68
2023/12/20 05:15:46;;;;;;;34.53;4.13;;;6.50;99.90;;;;;;5100626;28;20050;-69
2023/12/20 05:18:13;;;;;;;33.83;3.83;;;6.70;99.90;;;;;;5086690;28;20047;-68
2023/12/20 05:20:39;;;;;;;30.50;4.20;;;6.50;99.90;;;;;;5100946;28;20065;-68
2023/12/20 05:23:05;;;;;;;30.50;4.30;;;6.50;99.90;;;;;;5097842;28;20158;-67
2023/12/20 05:25:31;;;;;;;32.33;4.90;;;6.50;99.90;;;;;;5097535;28;20114;-69
2023/12/20 05:27:56;;;;;;;38.03;5.93;;;6.50;99.90;;;;;;5091292;28;20067;-68
2023/12/20 05:30:22;;;;;;;30.95;4.65;;;6.50;99.90;;;;;;5104787;27;20067;-69
2023/12/20 05:32:48;;;;;;;36.83;5.40;;;6.60;99.90;;;;;;5104662;28;20126;-69
2023/12/20 05:35:15;;;;;;;35.17;4.20;;;6.50;99.90;;;;;;5098254;28;20040;-68
2023/12/20 05:37:41;;;;;;;34.72;5.30;;;6.60;99.90;;;;;;5106158;28;20454;-68
2023/12/20 05:40:10;;;;;;;27.40;3.97;;;6.60;99.90;;;;;;5086890;28;20079;-68
2023/12/20 05:42:39;;;;;;;32.13;3.95;;;6.60;99.90;;;;;;5102385;28;20118;-69
2023/12/20 05:45:05;;;;;;;33.83;4.38;;;6.60;99.90;;;;;;5097238;28;20786;-68
2023/12/20 05:47:31;;;;;;;28.25;4.65;;;6.60;99.90;;;;;;5118570;27;20167;-69
2023/12/20 05:49:57;;;;;;;35.92;4.55;;;6.70;99.90;;;;;;5104141;28;20565;-69
2023/12/20 05:52:23;;;;;;;34.47;4.53;;;6.70;99.90;;;;;;5099313;28;20712;-68
2023/12/20 05:54:48;;;;;;;31.10;4.75;;;6.60;99.90;;;;;;5134089;27;20039;-66
2023/12/20 05:57:14;;;;;;;21.00;3.42;;;6.70;99.90;;;;;;5086646;28;20172;-66
2023/12/20 05:59:40;;;;;;;26.92;4.43;;;6.70;99.90;;;;;;5100751;28;20314;-65
2023/12/20 06:02:06;;;;;;;27.60;4.57;;;6.70;99.90;;;;;;5130223;27;20551;-65
2023/12/20 06:04:32;;;;;;;33.10;4.70;;;6.70;99.90;;;;;;5103432;28;20040;-65
2023/12/20 06:06:59;;;;;;;25.65;3.83;;;6.70;99.90;;;;;;5099493;28;20096;-65
2023/12/20 06:09:26;;;;;;;22.60;4.57;;;6.70;99.90;;;;;;5101782;28;20559;-65
2023/12/20 06:11:52;;;;;;;34.47;4.53;;;6.70;99.90;;;;;;5104430;28;20126;-65
2023/12/20 06:14:18;;;;;;;27.08;4.65;;;6.70;99.90;;;;;;5084134;28;20055;-65
2023/12/20 06:16:45;;;;;;;23.77;4.35;;;6.80;99.90;;;;;;5128985;27;20097;-66
2023/12/20 06:19:10;;;;;;;38.17;4.65;;;6.70;99.90;;;;;;5099808;28;20264;-66
2023/12/20 06:21:36;;;;;;;33.58;4.00;;;6.70;99.90;;;;;;5114051;27;20039;-66
2023/12/20 06:24:02;;;;;;;24.02;3.97;;;7.30;99.90;;;;;;5118093;27;20411;-66
2023/12/20 06:26:28;;;;;;;31.10;3.65;;;6.80;99.90;;;;;;5078318;28;20039;-66
2023/12/20 06:28:54;;;;;;;38.03;4.57;;;6.80;99.90;;;;;;5087482;28;20032;-66
2023/12/20 06:31:19;;;;;;;38.85;4.75;;;6.80;99.90;;;;;;5117253;27;21080;-70
2023/12/20 06:33:45;;;;;;;24.25;4.30;;;6.90;99.90;;;;;;5089160;28;20158;-66
2023/12/20 06:36:13;;;;;;;29.40;4.38;;;6.90;99.90;;;;;;5082305;28;20400;-66
2023/12/20 06:38:39;;;;;;;35.92;4.18;;;6.90;99.90;;;;;;5086466;28;20039;-66
2023/12/20 06:41:05;;;;;;;33.03;4.90;;;7.00;99.90;;;;;;5117067;27;20066;-66
2023/12/20 06:43:32;;;;;;;28.73;3.95;;;6.90;99.90;;;;;;5091172;27;20048;-66
2023/12/20 06:45:58;;;;;;;34.60;4.38;;;6.90;99.90;;;;;;5085993;28;20047;-67
2023/12/20 06:48:24;;;;;;;30.83;4.30;;;7.00;99.90;;;;;;5112321;27;20048;-66
2023/12/20 06:50:49;;;;;;;26.00;3.55;;;7.00;99.90;;;;;;5113787;27;20496;-67
2023/12/20 06:53:15;;;;;;;31.23;4.20;;;7.00;99.90;;;;;;5066150;28;21819;-66
2023/12/20 06:55:41;;;;;;;23.73;3.50;;;7.10;99.90;;;;;;5112660;27;20046;-65
2023/12/20 06:58:06;;;;;;;32.17;3.45;;;7.10;99.90;;;;;;5077915;28;20226;-65
2023/12/20 07:00:33;;;;;;;30.00;4.18;;;7.10;99.90;;;;;;5079123;28;20077;-65
2023/12/20 07:02:59;;;;;;;30.92;4.22;;;7.60;99.90;;;;;;5094655;27;20056;-65
2023/12/20 07:05:25;;;;;;;23.00;3.90;;;7.10;99.90;;;;;;5083136;28;20044;-65
2023/12/20 07:07:51;;;;;;;29.15;3.55;;;7.20;99.90;;;;;;5069514;28;20092;-65
2023/12/20 07:10:16;;;;;;;30.98;3.95;;;7.10;99.90;;;;;;5074963;28;20040;-66
2023/12/20 07:12:42;;;;;;;36.13;4.18;;;7.10;99.90;;;;;;5079682;28;20613;-65
2023/12/20 07:15:08;;;;;;;26.35;4.13;;;7.20;99.90;;;;;;5097500;28;20126;-65
2023/12/20 07:17:34;;;;;;;32.00;4.65;;;7.10;99.90;;;;;;5089813;28;20840;-65
2023/12/20 07:20:03;;;;;;;26.38;3.78;;;7.10;99.90;;;;;;5095862;28;20051;-65
2023/12/20 07:22:33;;;;;;;32.42;4.30;;;7.10;99.90;;;;;;5090645;28;20043;-65
2023/12/20 07:24:59;;;;;;;31.27;4.60;;;7.20;99.90;;;;;;5094478;28;20060;-65
2023/12/20 07:27:26;;;;;;;29.80;3.75;;;7.20;99.90;;;;;;5099360;28;20039;-65
2023/12/20 07:29:51;;;;;;;25.33;3.75;;;7.20;99.90;;;;;;5092162;27;20592;-65
2023/12/20 07:32:17;;;;;;;21.73;3.28;;;7.20;99.90;;;;;;5081132;28;20068;-66
2023/12/20 07:34:43;;;;;;;27.73;4.45;;;7.30;99.90;;;;;;5077215;27;20055;-65
2023/12/20 07:37:11;;;;;;;23.17;3.78;;;7.30;99.90;;;;;;5079252;27;20109;-65
2023/12/20 07:39:41;;;;;;;29.95;4.55;;;7.30;99.90;;;;;;5097808;28;20050;-66
2023/12/20 07:42:07;;;;;;;32.55;3.97;;;7.30;99.90;;;;;;5093681;28;20063;-66
2023/12/20 07:44:33;;;;;;;25.80;4.55;;;7.30;99.90;;;;;;5080997;28;20040;-66
2023/12/20 07:47:00;;;;;;;32.80;4.15;;;7.30;99.90;;;;;;5097560;28;20043;-66
2023/12/20 07:49:26;;;;;;;36.83;4.22;;;7.30;99.90;;;;;;5076976;28;20048;-66
2023/12/20 07:51:52;;;;;;;26.60;4.95;;;7.40;99.90;;;;;;5094041;28;20032;-73
2023/12/20 07:54:18;;;;;;;32.95;4.93;;;7.50;99.90;;;;;;5077317;28;20131;-66
2023/12/20 07:56:43;;;;;;;28.95;4.05;;;7.40;99.90;;;;;;5081742;28;20052;-64
2023/12/20 07:59:09;;;;;;;25.20;3.80;;;7.40;99.90;;;;;;5120456;27;20129;-64
2023/12/20 08:01:35;;;;;;;27.35;4.13;;;7.40;99.90;;;;;;5092628;28;20059;-66
2023/12/20 08:04:01;;;;;;;27.77;4.60;;;7.40;99.90;;;;;;5075476;28;20043;-65
2023/12/20 08:06:27;;;;;;;26.00;4.15;;;7.40;99.90;;;;;;5120881;27;20051;-65
2023/12/20 08:08:53;;;;;;;34.40;4.40;;;7.70;99.90;;;;;;5073052;28;20051;-66
2023/12/20 08:11:18;;;;;;;32.00;4.68;;;7.40;99.90;;;;;;5089083;28;20124;-65
2023/12/20 08:13:45;;;;;;;29.92;3.83;;;7.80;99.90;;;;;;5077629;28;20093;-66
2023/12/20 08:16:13;;;;;;;26.98;4.28;;;7.40;99.90;;;;;;5096868;28;20051;-66
2023/12/20 08:18:39;;;;;;;30.95;4.10;;;7.40;99.90;;;;;;5068801;28;20193;-66
2023/12/20 08:21:07;;;;;;;30.17;4.22;;;7.40;99.90;;;;;;5068226;28;20044;-66
2023/12/20 08:23:34;;;;;;;25.15;4.03;;;7.40;99.90;;;;;;5065391;28;20496;-67
2023/12/20 08:26:07;;;;;;;26.83;3.78;;;7.50;99.90;;;;;;5086452;28;20043;-66
2023/12/20 08:28:36;;;;;;;29.88;3.95;;;7.40;99.90;;;;;;5084287;28;20100;-66
2023/12/20 08:31:02;;;;;;;24.80;3.58;;;7.40;99.90;;;;;;5084928;28;20051;-66
2023/12/20 08:33:28;;;;;;;23.08;3.25;;;7.40;99.90;;;;;;5119707;27;20080;-66
2023/12/20 08:35:54;;;;;;;26.20;3.83;;;7.40;99.90;;;;;;5085932;28;20074;-66
2023/12/20 08:38:20;;;;;;;19.05;3.17;;;7.40;99.90;;;;;;5065457;28;20606;-67
2023/12/20 08:40:46;;;;;;;16.35;3.05;;;7.40;99.90;;;;;;5073149;28;20058;-65
2023/12/20 08:43:11;;;;;;;26.02;3.45;;;7.40;99.90;;;;;;5073443;28;20048;-66
2023/12/20 08:45:38;;;;;;;24.17;2.67;;;7.40;99.90;;;;;;5090046;28;20138;-66
2023/12/20 08:48:05;;;;;;;25.08;3.70;;;7.50;99.90;;;;;;5084115;28;20134;-66
2023/12/20 08:50:31;;;;;;;21.77;2.97;;;7.40;99.90;;;;;;5092067;28;20047;-66
2023/12/20 08:52:57;;;;;;;27.30;3.67;;;7.50;99.90;;;;;;5086916;28;20115;-66
2023/12/20 08:55:22;;;;;;;27.45;3.58;;;7.40;99.90;;;;;;5068663;28;20040;-66
2023/12/20 08:57:49;;;;;;;16.13;2.55;;;7.10;99.90;;;;;;5061426;28;20751;-65
2023/12/20 09:00:15;;;;;;;17.75;3.10;;;7.30;99.90;;;;;;5086500;28;20047;-65
2023/12/20 09:02:41;;;;;;;22.58;3.75;;;7.10;99.90;;;;;;5086832;28;20047;-65
2023/12/20 09:05:07;;;;;;;13.23;2.33;;;7.00;99.90;;;;;;5084909;28;20133;-66
2023/12/20 09:07:33;;;;;;;10.90;1.90;;;6.90;99.90;;;;;;5085928;28;20032;-66
2023/12/20 09:09:59;;;;;;;15.02;2.20;;;6.80;99.90;;;;;;5087209;28;20044;-66
2023/12/20 09:12:25;;;;;;;13.48;2.08;;;6.70;99.90;;;;;;5072723;28;20216;-67
2023/12/20 09:14:51;;;;;;;12.20;1.25;;;6.60;99.90;;;;;;5119897;27;21150;-66
2023/12/20 09:17:18;;;;;;;7.10;1.55;;;6.50;99.90;;;;;;5068476;28;20051;-65
2023/12/20 09:19:44;;;;;;;11.82;1.10;;;6.40;99.90;;;;;;5085095;28;20051;-65
2023/12/20 09:22:10;;;;;;;11.65;1.50;;;6.40;99.90;;;;;;5087554;28;20044;-66
2023/12/20 09:24:36;;;;;;;11.07;1.33;;;6.50;99.90;;;;;;5087228;28;20047;-66
2023/12/20 09:27:02;;;;;;;11.07;1.33;;;6.20;99.90;;;;;;5083774;28;20047;-66
2023/12/20 09:29:28;;;;;;;12.57;1.23;;;6.20;99.90;;;;;;5084326;28;20067;-66
2023/12/20 09:31:54;;;;;;;8.77;1.05;;;6.10;99.90;;;;;;5088904;28;20760;-65
2023/12/20 09:34:21;;;;;;;9.35;1.40;;;6.10;99.90;;;;;;5067784;28;20884;-65
2023/12/20 09:36:47;;;;;;;11.60;1.58;;;6.10;99.90;;;;;;5067460;28;20054;-66
2023/12/20 09:39:20;;;;;;;8.93;1.38;;;6.10;99.90;;;;;;5084157;28;20063;-65
2023/12/20 09:42:02;;;;;;;7.13;1.45;;;6.10;99.90;;;;;;5080680;28;20040;-66
2023/12/20 09:44:28;;;;;;;11.10;1.35;;;6.10;99.90;;;;;;5086466;28;20055;-66
2023/12/20 09:46:55;;;;;;;8.77;1.10;;;6.00;99.90;;;;;;5084777;28;20498;-65
2023/12/20 09:49:21;;;;;;;9.95;1.48;;;6.60;99.90;;;;;;5086349;28;20048;-65
2023/12/20 09:51:50;;;;;;;13.70;1.52;;;6.00;99.90;;;;;;5121768;27;20074;-68
2023/12/20 09:54:18;;;;;;;13.85;1.50;;;6.00;99.90;;;;;;5070915;28;20090;-66
2023/12/20 09:56:44;;;;;;;13.00;1.50;;;6.00;99.90;;;;;;5086338;28;20055;-67
2023/12/20 09:59:10;;;;;;;9.93;1.58;;;6.00;99.90;;;;;;5067220;28;20044;-66
2023/12/20 10:01:39;;;;;;;20.05;2.50;;;6.00;99.90;;;;;;5084982;27;21069;-64
2023/12/20 10:04:08;;;;;;;14.82;1.73;;;6.00;99.90;;;;;;5083017;28;20075;-68
2023/12/20 10:06:41;;;;;;;11.75;1.77;;;6.10;99.90;;;;;;5075330;28;20854;-66
2023/12/20 10:09:08;;;;;;;14.35;1.92;;;6.70;99.90;;;;;;5069076;28;20039;-66
2023/12/20 10:11:37;;;;;;;13.10;2.38;;;6.30;99.90;;;;;;5072690;28;20068;-67
2023/12/20 10:14:03;;;;;;;19.70;3.08;;;6.10;99.90;;;;;;5091362;28;20051;-67
2023/12/20 10:16:29;;;;;;;10.23;1.80;;;6.20;99.90;;;;;;5090199;28;20040;-67
2023/12/20 10:18:55;;;;;;;14.98;1.88;;;6.20;99.90;;;;;;5070283;28;20480;-67
2023/12/20 10:21:22;;;;;;;14.48;2.33;;;6.20;99.90;;;;;;5089636;27;20047;-65
2023/12/20 10:23:51;;;;;;;8.35;1.70;;;6.20;99.90;;;;;;5090340;28;20051;-68
2023/12/20 10:26:26;;;;;;;19.90;2.25;;;6.30;99.90;;;;;;5089665;28;20142;-66
2023/12/20 10:28:54;;;;;;;17.95;1.70;;;6.40;99.90;;;;;;5085145;28;21649;-67
2023/12/20 10:31:28;;;;;;;19.50;1.98;;;6.30;99.90;;;;;;5087531;28;20116;-67
2023/12/20 10:33:57;;;;;;;13.68;1.67;;;6.30;99.90;;;;;;5085861;28;20052;-67
2023/12/20 10:36:26;;;;;;;15.13;1.90;;;6.30;99.90;;;;;;5084542;27;20055;-69
2023/12/20 10:38:52;;;;;;;19.27;2.17;;;6.30;99.90;;;;;;5067370;28;20171;-67
2023/12/20 10:41:27;;;;;;;16.20;2.03;;;7.10;99.90;;;;;;5086528;28;20132;-67
2023/12/20 10:44:00;;;;;;;12.98;1.73;;;6.40;99.90;;;;;;5085817;28;20150;-67
2023/12/20 10:46:29;;;;;;;18.48;2.50;;;6.40;99.90;;;;;;5089629;28;20119;-67
2023/12/20 10:48:56;;;;;;;19.33;1.98;;;6.40;99.90;;;;;;5094532;28;20101;-67
2023/12/20 10:51:23;;;;;;;13.05;2.10;;;6.40;99.90;;;;;;5094913;28;20039;-68
2023/12/20 10:53:50;;;;;;;15.30;2.03;;;6.40;99.90;;;;;;5096808;28;20126;-67
2023/12/20 10:56:18;;;;;;;19.40;2.22;;;6.40;99.90;;;;;;5132760;27;20051;-66
2023/12/20 10:58:46;;;;;;;19.85;2.00;;;6.30;99.90;;;;;;5093191;28;20082;-67
2023/12/20 11:01:16;;;;;;;13.80;2.08;;;6.40;99.90;;;;;;5125136;27;20085;-67
2023/12/20 11:03:49;;;;;;;16.88;2.55;;;6.40;99.90;;;;;;5097178;28;20523;-67
2023/12/20 11:06:32;;;;;;;14.65;2.08;;;6.40;99.90;;;;;;5096068;28;20082;-67
2023/12/20 11:09:29;;;;;;;13.55;2.38;;;6.40;99.90;;;;;;5087874;28;20138;-67
2023/12/20 11:12:18;;;;;;;20.27;2.17;;;6.40;99.90;;;;;;5089078;28;20047;-65
2023/12/20 11:14:52;;;;;;;18.90;2.00;;;6.40;99.90;;;;;;5091003;28;20440;-65
2023/12/20 11:17:18;;;;;;;17.48;2.10;;;6.40;99.90;;;;;;5128100;27;20578;-65
2023/12/20 11:20:05;;;;;;;18.67;2.35;;;6.50;99.90;;;;;;5079758;28;20043;-66
2023/12/20 11:22:33;;;;;;;13.60;2.10;;;6.50;99.90;;;;;;5089037;28;20526;-66
2023/12/20 11:25:08;;;;;;;18.02;2.00;;;6.50;99.90;;;;;;5103344;27;20200;-65
2023/12/20 11:27:34;;;;;;;19.08;2.10;;;6.50;99.90;;;;;;5105687;27;20035;-66
2023/12/20 11:30:05;;;;;;;12.35;1.83;;;6.50;99.90;;;;;;5096966;28;20438;-65
2023/12/20 11:32:34;;;;;;;20.73;2.28;;;6.50;99.90;;;;;;5085630;28;20793;-66
2023/12/20 11:35:16;;;;;;;16.33;2.28;;;6.50;99.90;;;;;;5094692;28;20065;-65
2023/12/20 11:37:42;;;;;;;17.00;2.28;;;6.60;99.90;;;;;;5128662;27;20389;-65
2023/12/20 11:40:12;;;;;;;19.77;2.63;;;6.60;99.90;;;;;;5084686;28;20055;-65
2023/12/20 11:42:40;;;;;;;17.35;2.90;;;6.60;99.90;;;;;;5069306;28;20895;-65
2023/12/20 11:45:09;;;;;;;17.88;3.75;;;6.60;99.90;;;;;;5095458;28;20404;-66
2023/12/20 11:47:36;;;;;;;18.80;3.78;;;6.60;99.90;;;;;;5117597;27;20075;-66
2023/12/20 11:50:03;;;;;;;25.40;2.70;;;6.70;99.90;;;;;;5076317;28;20056;-65
2023/12/20 11:52:30;;;;;;;18.35;2.13;;;6.70;99.90;;;;;;5094463;28;20625;-65
2023/12/20 11:54:57;;;;;;;25.33;3.88;;;6.70;99.90;;;;;;5093261;28;20055;-65
2023/12/20 11:57:23;;;;;;;20.35;2.47;;;6.70;99.90;;;;;;5129721;27;20134;-66
2023/12/20 11:59:49;;;;;;;15.15;2.58;;;6.70;99.90;;;;;;5126258;27;20679;-65
2023/12/20 12:02:15;;;;;;;19.80;2.28;;;6.80;99.90;;;;;;5075272;28;20056;-66
2023/12/20 12:04:41;;;;;;;16.63;3.03;;;6.80;99.90;;;;;;5094211;27;21145;-65
2023/12/20 12:07:07;;;;;;;18.13;2.53;;;6.80;99.90;;;;;;5077393;28;20047;-66
2023/12/20 12:09:34;;;;;;;15.10;2.67;;;6.80;99.90;;;;;;5095051;28;20044;-65
2023/12/20 12:12:00;;;;;;;15.70;1.88;;;6.80;99.90;;;;;;5076431;28;20043;-65
2023/12/20 12:14:25;;;;;;;15.70;2.30;;;6.80;99.90;;;;;;5127930;27;20047;-65
2023/12/20 12:16:53;;;;;;;14.00;2.20;;;6.90;99.90;;;;;;5075535;28;20504;-66
2023/12/20 12:19:23;;;;;;;13.85;1.90;;;6.90;99.90;;;;;;5093997;28;20071;-66
2023/12/20 12:21:50;;;;;;;20.42;2.38;;;6.90;99.90;;;;;;5095738;28;20055;-66
2023/12/20 12:24:23;;;;;;;15.35;2.20;;;6.90;99.90;;;;;;5079678;28;20054;-67
2023/12/20 12:26:52;;;;;;;15.50;1.67;;;6.90;99.90;;;;;;5096285;28;20127;-65
2023/12/20 12:29:18;;;;;;;14.25;2.53;;;6.90;99.90;;;;;;5127131;27;20138;-65
2023/12/20 12:31:43;;;;;;;17.35;2.10;;;6.90;99.90;;;;;;5095811;28;20042;-68
2023/12/20 12:34:10;;;;;;;13.75;2.50;;;6.90;99.90;;;;;;5095859;28;20039;-69
2023/12/20 12:36:35;;;;;;;15.45;2.38;;;6.90;99.90;;;;;;5077429;28;20704;-69
2023/12/20 12:39:04;;;;;;;14.80;2.30;;;6.90;99.90;;;;;;5097788;28;20051;-69
2023/12/20 12:41:30;;;;;;;14.30;2.30;;;6.90;99.90;;;;;;5109280;27;20082;-70
2023/12/20 12:43:56;;;;;;;14.88;2.10;;;6.90;99.90;;;;;;5127761;27;20043;-66
2023/12/20 12:46:22;;;;;;;14.70;1.98;;;6.90;99.90;;;;;;5074679;28;20684;-70